Airfield :
LOGIN :

Register | Disclaimer

   EN    FR    IT 

 










Legend :    VFR   Marginal VFR   IFR   Intensive IFR   Very Intensive IFR
Visi :
Ceiling :
>= 8 km
>= 3000ft
5 to 8 km
1000 to 3000 ft
1500m to 5 km
500 to 1000 ft
800 to 1500m
200 to 500 ft
< 800m
< 200 ft
Symbols :   Thunderstorms  Fog  Heavy snow  Heavy precipitations  Wind > 20 kt
SIGMETs :     Misc.  Thunderstorms  Icing  Turbulence  Mountain Waves  Volcanic Ashes






- Airport Elevation : -11 ft
- IATA code : AMS


EHAM - Amsterdam Schiphol

CURRENT METAR :
  • 312025Z 04011KT 360V080 CAVOK 17/10 Q1023 NOSIG

EXPIRED METARs :
  • 311955Z 04012KT 010V080 CAVOK 17/10 Q1022 NOSIG
  • 311925Z 05014KT 020V080 CAVOK 18/10 Q1022 NOSIG
  • 311855Z 04014KT 010V080 CAVOK 18/10 Q1022 NOSIG
  • 311825Z 05013KT 020V080 CAVOK 18/10 Q1022 NOSIG
  • 311755Z 07016KT CAVOK 20/07 Q1022 NOSIG

TAF TAF EHAM
Valid from the 31 at 18:00 until the 02 at 00:00 UTC


311714Z 3118/0124 04015KT CAVOK
BECMG 3119/3122 05008KT
BECMG 0103/0106 08010KT
BECMG 0110/0113 05012KT
BECMG 0116/0119 36010KT
BECMG 0119/0122 03006KT



MET'MAP, your aeronautical weather chart ! - Copyright ORBIFLY December 2007 - Disclaimer

ORBIFLY MET'MAP TEAM :

Programming & Development : Alexandra Zaïnal
Concept & original design : Baudouin d'Aumeries
Assistance for programming : Marc-Olivier Méhu
Technical & hardware support : Manuel Goepfert

Contact : metmap@orbifly.com




SOURCES & CREDITS :

   NOAA